Portada
METAR-TAF:

METAR-TAF

Aeroports :

Aeroport Internacional d'Osaka

Osaka, Japó

latitud: 34-47N, longitud: 135-27E, altitud: 12 m

Observació

L'informe es va fer fa 7 hores i 37 minuts, a les 11:00 UTC
Vent 8 kt del Est/Nord-Est
Temperatura 20°C
Humitat 83%
Pressió 1007 hPa
Visibilitat 10 km o més
Escasses núvols a una alçada de 2000 ft
Cel ennuvolat a una alçada de 9000 ft

METAR: RJOO 241100Z 07008KT 9999 FEW020 BKN090 20/17 Q1007 RMK 1CU020 5AC090 A2974

Hora: 03:37 (18:37 UTC)

Pronòstic

L'informe es va fer fa 1 hora i 32 minuts, a les 17:05 UTC
Pronòstic vàlid del 24 a les 18 UTC al 26 a les 00 UTC
Vent 4 kt del Est/Nord-Est
Visibilitat 10 km o més
Escasses núvols a una alçada de 1500 ft
Núvols disperses a una alçada de 2500 ft
Cel ennuvolat a una alçada de 4000 ft
Evolucionant progressivament
l' 25 a les 04 UTC al 25 a les 06 UTC
Vent 5 kt del Nord-Oest

TAF: RJOO 241705Z 2418/2600 06004KT 9999 FEW015 SCT025 BKN040 BECMG 2504/2506 32005KT

Observacions i pronòstics meteorològics de més de 4000 aeroports (METAR i TAF).

Les estacions disponibles són els punts grocs i vermells al mapa.

Posi el ratolí al punt desitjat per veure el nom de l'estació.

Feu clic per veure les observacions i els pronòstics meteorològics.

Per canviar el mapa: feu clic els botons verds amb una creu de color negre per apropar; al botó verd amb un guió per allunyar la imatge; o en les fletxes verdes per a mapes adjacents.


METAR-TAF: